createdAt,value
2018-04-11T00:00:58.577Z,1002.20
2018-04-11T00:01:58.560Z,1002.21
2018-04-11T00:02:58.543Z,1002.19
2018-04-11T00:03:58.529Z,1002.18
2018-04-11T00:04:58.530Z,1002.13
2018-04-11T00:05:58.504Z,1002.12
2018-04-11T00:06:58.484Z,1002.07
2018-04-11T00:07:58.472Z,1002.02
2018-04-11T00:08:58.457Z,1002.02
2018-04-11T00:09:58.472Z,1002.05
2018-04-11T00:10:58.431Z,1002.04
2018-04-11T00:11:58.415Z,1002.04
2018-04-11T00:12:58.399Z,1002.05
2018-04-11T00:13:58.388Z,1002.05
2018-04-11T00:14:58.379Z,1002.02
2018-04-11T00:15:58.372Z,1002.03
2018-04-11T00:16:58.343Z,1002.01
2018-04-11T00:17:58.330Z,1002.03
2018-04-11T00:18:58.340Z,1002.03
2018-04-11T00:19:58.304Z,1002.02
2018-04-11T00:20:58.287Z,1002.03
2018-04-11T00:21:58.274Z,1002.08
2018-04-11T00:22:58.258Z,1002.11
2018-04-11T00:23:58.246Z,1002.12
2018-04-11T00:24:58.248Z,1002.10
2018-04-11T00:25:58.219Z,1002.11
2018-04-11T00:26:58.199Z,1002.10
2018-04-11T00:27:58.194Z,1002.06
2018-04-11T00:28:58.186Z,1002.06
2018-04-11T00:29:58.160Z,1002.05
2018-04-11T00:30:58.141Z,1002.00
2018-04-11T00:31:58.139Z,1002.05
2018-04-11T00:32:58.110Z,1002.03
2018-04-11T00:33:58.096Z,1002.01
2018-04-11T00:34:58.082Z,1002.02
2018-04-11T00:35:58.078Z,1002.01
2018-04-11T00:36:58.052Z,1002.00
2018-04-11T00:37:58.048Z,1002.00
2018-04-11T00:38:58.023Z,1002.01
2018-04-11T00:39:58.007Z,1002.01
2018-04-11T00:40:58.010Z,1002.09
2018-04-11T00:41:57.979Z,1002.15
2018-04-11T00:42:57.968Z,1002.20
2018-04-11T00:43:57.953Z,1002.21
2018-04-11T00:44:57.936Z,1002.21
2018-04-11T00:45:57.932Z,1002.21
2018-04-11T00:46:57.907Z,1002.22
2018-04-11T00:47:57.895Z,1002.21
2018-04-11T00:48:58.472Z,1002.20
2018-04-11T00:49:57.865Z,1002.21
2018-04-11T00:50:57.972Z,1002.28
2018-04-11T00:51:57.837Z,1002.30
2018-04-11T00:52:57.820Z,1002.30
2018-04-11T00:53:57.806Z,1002.28
2018-04-11T00:54:57.789Z,1002.28
2018-04-11T00:55:57.773Z,1002.29
2018-04-11T00:56:57.775Z,1002.27
2018-04-11T00:57:57.765Z,1002.25
2018-04-11T00:58:57.733Z,1002.27
2018-04-11T00:59:57.717Z,1002.27
2018-04-11T01:00:57.704Z,1002.30
2018-04-11T01:01:57.704Z,1002.29
2018-04-11T01:02:57.690Z,1002.30
2018-04-11T01:03:57.660Z,1002.34
2018-04-11T01:04:57.643Z,1002.35
2018-04-11T01:05:57.629Z,1002.38
2018-04-11T01:06:57.613Z,1002.44
2018-04-11T01:07:57.601Z,1002.44
2018-04-11T01:08:57.604Z,1002.47
2018-04-11T01:09:57.572Z,1002.52
2018-04-11T01:10:57.554Z,1002.57
2018-04-11T01:11:57.540Z,1002.56
2018-04-11T01:12:57.577Z,1002.58
2018-04-11T01:13:57.528Z,1002.61
2018-04-11T01:14:57.498Z,1002.66
2018-04-11T01:15:57.485Z,1002.71
2018-04-11T01:16:57.466Z,1002.71
2018-04-11T01:17:57.452Z,1002.78
2018-04-11T01:18:57.447Z,1002.79
2018-04-11T01:19:57.438Z,1002.79
2018-04-11T01:20:57.408Z,1002.77
2018-04-11T01:21:57.388Z,1002.73
2018-04-11T01:22:57.374Z,1002.67
2018-04-11T01:23:57.363Z,1002.69
2018-04-11T01:24:57.377Z,1002.68
2018-04-11T01:25:57.330Z,1002.70
2018-04-11T01:26:57.328Z,1002.75
2018-04-11T01:27:57.317Z,1002.81
2018-04-11T01:28:57.310Z,1002.83
2018-04-11T01:29:57.272Z,1002.87
2018-04-11T01:30:57.285Z,1002.83
2018-04-11T01:31:57.263Z,1002.83
2018-04-11T01:32:57.228Z,1002.72
2018-04-11T01:33:57.239Z,1002.68
2018-04-11T01:34:57.195Z,1002.64
2018-04-11T01:35:57.201Z,1002.54
2018-04-11T01:36:57.184Z,1002.57
2018-04-11T01:37:57.159Z,1002.60
2018-04-11T01:38:57.136Z,1002.58
2018-04-11T01:39:57.121Z,1002.60
2018-04-11T01:40:57.106Z,1002.68
2018-04-11T01:41:57.102Z,1002.66
2018-04-11T01:42:57.084Z,1002.69
2018-04-11T01:43:57.070Z,1002.68
2018-04-11T01:44:57.047Z,1002.64
2018-04-11T01:45:57.032Z,1002.60
2018-04-11T01:46:57.030Z,1002.59
2018-04-11T01:47:56.999Z,1002.65
2018-04-11T01:48:56.981Z,1002.65
2018-04-11T01:49:56.969Z,1002.68
2018-04-11T01:50:56.952Z,1002.70
2018-04-11T01:51:56.943Z,1002.76
2018-04-11T01:52:56.957Z,1002.77
2018-04-11T01:53:56.912Z,1002.77
2018-04-11T01:54:56.899Z,1002.80
2018-04-11T01:55:56.880Z,1002.81
2018-04-11T01:56:56.866Z,1002.82
2018-04-11T01:57:56.850Z,1002.83
2018-04-11T01:58:56.849Z,1002.82
2018-04-11T01:59:56.818Z,1002.83
2018-04-11T02:00:56.803Z,1002.80
2018-04-11T02:01:56.790Z,1002.79
2018-04-11T02:02:56.774Z,1002.81
2018-04-11T02:03:56.759Z,1002.78
2018-04-11T02:05:17.756Z,1002.74
2018-04-11T02:05:56.728Z,1002.77
2018-04-11T02:06:56.759Z,1002.74
2018-04-11T02:07:56.699Z,1002.73
2018-04-11T02:08:56.682Z,1002.73
2018-04-11T02:09:56.668Z,1002.71
2018-04-11T02:10:56.669Z,1002.73
2018-04-11T02:11:56.643Z,1002.78
2018-04-11T02:12:56.624Z,1002.81
2018-04-11T02:13:56.609Z,1002.80
2018-04-11T02:14:56.588Z,1002.88
2018-04-11T02:15:56.592Z,1002.85
2018-04-11T02:16:56.562Z,1002.85
2018-04-11T02:17:56.547Z,1002.81
2018-04-11T02:18:56.532Z,1002.80
2018-04-11T02:19:56.520Z,1002.76
2018-04-11T02:20:56.518Z,1002.77
2018-04-11T02:21:56.482Z,1002.73
2018-04-11T02:22:56.473Z,1002.72
2018-04-11T02:23:56.463Z,1002.76
2018-04-11T02:24:56.445Z,1002.77
2018-04-11T02:25:56.440Z,1002.79
2018-04-11T02:26:56.413Z,1002.79
2018-04-11T02:27:56.395Z,1002.85
2018-04-11T02:28:56.384Z,1002.90
2018-04-11T02:29:56.362Z,1002.91
2018-04-11T02:30:56.374Z,1002.96
2018-04-11T02:31:56.387Z,1002.96
2018-04-11T02:32:56.321Z,1002.96
2018-04-11T02:33:56.324Z,1002.98
2018-04-11T02:34:56.291Z,1002.96
2018-04-11T02:35:56.274Z,1002.94
2018-04-11T02:36:56.267Z,1002.97
2018-04-11T02:37:56.261Z,1002.98
2018-04-11T02:38:56.247Z,1002.97
2018-04-11T02:39:56.219Z,1003.00
2018-04-11T02:40:56.203Z,1003.02
2018-04-11T02:41:56.187Z,1003.05
2018-04-11T02:42:56.172Z,1003.06
2018-04-11T02:43:56.157Z,1003.05
2018-04-11T02:44:56.158Z,1003.10
2018-04-11T02:45:56.126Z,1003.07
2018-04-11T02:46:56.113Z,1003.10
2018-04-11T02:47:56.097Z,1003.06
2018-04-11T02:48:56.098Z,1003.04
2018-04-11T02:49:56.061Z,1003.02
2018-04-11T02:50:56.052Z,1003.02
2018-04-11T02:51:56.038Z,1003.03
2018-04-11T02:52:56.022Z,1003.02
2018-04-11T02:53:56.024Z,1003.02
2018-04-11T02:54:55.994Z,1003.04
2018-04-11T02:55:55.976Z,1003.01
2018-04-11T02:56:55.961Z,1003.03
2018-04-11T02:57:55.947Z,1003.02
2018-04-11T02:58:55.931Z,1002.99
2018-04-11T02:59:55.932Z,1002.95
2018-04-11T03:00:55.904Z,1002.95
2018-04-11T03:01:55.887Z,1002.93
2018-04-11T03:02:55.869Z,1002.87
2018-04-11T03:03:55.857Z,1002.89
2018-04-11T03:04:55.840Z,1002.87
2018-04-11T03:05:55.839Z,1002.88
2018-04-11T03:06:55.812Z,1002.87
2018-04-11T03:07:55.795Z,1002.87
2018-04-11T03:09:16.797Z,1002.88
2018-04-11T03:09:55.766Z,1002.87
2018-04-11T03:10:55.748Z,1002.83
2018-04-11T03:11:55.753Z,1002.80
2018-04-11T03:12:55.732Z,1002.81
2018-04-11T03:13:55.708Z,1002.82
2018-04-11T03:14:55.723Z,1002.82
2018-04-11T03:15:55.678Z,1002.83
2018-04-11T03:16:55.661Z,1002.88
2018-04-11T03:17:55.643Z,1002.90
2018-04-11T03:18:55.631Z,1002.90
2018-04-11T03:19:55.616Z,1002.88
2018-04-11T03:20:55.616Z,1002.90
2018-04-11T03:21:55.588Z,1002.91
2018-04-11T03:22:55.583Z,1002.90
2018-04-11T03:23:55.555Z,1002.85
2018-04-11T03:24:55.540Z,1002.85
2018-04-11T03:25:55.523Z,1002.83
2018-04-11T03:26:55.508Z,1002.77
2018-04-11T03:27:55.507Z,1002.74
2018-04-11T03:28:55.478Z,1002.71
2018-04-11T03:29:55.461Z,1002.70
2018-04-11T03:30:55.453Z,1002.68
2018-04-11T03:31:55.528Z,1002.69
2018-04-11T03:32:55.419Z,1002.68
2018-04-11T03:33:55.403Z,1002.68
2018-04-11T03:34:55.403Z,1002.67
2018-04-11T03:35:55.371Z,1002.67
2018-04-11T03:36:55.356Z,1002.68
2018-04-11T03:37:55.355Z,1002.66
2018-04-11T03:38:55.327Z,1002.64
2018-04-11T03:39:55.333Z,1002.62
2018-04-11T03:40:55.296Z,1002.63
2018-04-11T03:41:55.280Z,1002.60
2018-04-11T03:42:55.269Z,1002.57
2018-04-11T03:43:55.257Z,1002.46
2018-04-11T03:44:55.236Z,1002.42
2018-04-11T03:45:55.238Z,1002.33
2018-04-11T03:46:55.206Z,1002.27
2018-04-11T03:47:55.190Z,1002.23
2018-04-11T03:48:55.193Z,1002.19
2018-04-11T03:49:55.162Z,1002.19
2018-04-11T03:50:55.155Z,1002.24
2018-04-11T03:51:55.134Z,1002.27
2018-04-11T03:52:55.115Z,1002.31
2018-04-11T03:53:55.100Z,1002.34
2018-04-11T03:54:55.082Z,1002.42
2018-04-11T03:55:55.083Z,1002.44
2018-04-11T03:56:55.050Z,1002.45
2018-04-11T03:57:55.040Z,1002.48
2018-04-11T03:58:55.022Z,1002.50
2018-04-11T03:59:55.007Z,1002.51
2018-04-11T04:00:55.011Z,1002.49
2018-04-11T04:01:54.977Z,1002.49
2018-04-11T04:02:54.962Z,1002.47
2018-04-11T04:03:54.946Z,1002.47
2018-04-11T04:04:54.932Z,1002.48
2018-04-11T04:05:54.916Z,1002.49
2018-04-11T04:06:54.915Z,1002.47
2018-04-11T04:07:54.908Z,1002.50
2018-04-11T04:08:54.870Z,1002.49
2018-04-11T04:09:54.880Z,1002.52
2018-04-11T04:10:54.842Z,1002.52
2018-04-11T04:11:54.889Z,1002.55
2018-04-11T04:12:54.823Z,1002.57
2018-04-11T04:13:54.866Z,1002.60
2018-04-11T04:14:54.780Z,1002.66
2018-04-11T04:15:54.774Z,1002.65
2018-04-11T04:16:54.749Z,1002.66
2018-04-11T04:17:54.733Z,1002.67
2018-04-11T04:18:54.714Z,1002.67
2018-04-11T04:19:54.703Z,1002.68
2018-04-11T04:20:54.689Z,1002.69
2018-04-11T04:21:54.687Z,1002.71
2018-04-11T04:22:54.653Z,1002.71
2018-04-11T04:23:54.641Z,1002.73
2018-04-11T04:24:54.628Z,1002.70
2018-04-11T04:25:54.608Z,1002.69
2018-04-11T04:26:54.614Z,1002.71
2018-04-11T04:27:54.597Z,1002.67
2018-04-11T04:28:54.577Z,1002.64
2018-04-11T04:29:54.543Z,1002.61
2018-04-11T04:30:54.535Z,1002.57
2018-04-11T04:31:54.522Z,1002.56
2018-04-11T04:32:54.504Z,1002.56
2018-04-11T04:33:54.509Z,1002.58
2018-04-11T04:34:54.471Z,1002.59
2018-04-11T04:35:54.463Z,1002.57
2018-04-11T04:36:54.443Z,1002.59
2018-04-11T04:37:54.433Z,1002.59
2018-04-11T04:38:54.413Z,1002.61
2018-04-11T04:39:54.413Z,1002.62
2018-04-11T04:40:54.383Z,1002.64
2018-04-11T04:41:54.367Z,1002.61
2018-04-11T04:42:54.352Z,1002.63
2018-04-11T04:43:54.355Z,1002.65
2018-04-11T04:44:54.323Z,1002.62
2018-04-11T04:45:54.306Z,1002.60
2018-04-11T04:46:54.293Z,1002.59
2018-04-11T04:47:54.277Z,1002.61
2018-04-11T04:48:54.263Z,1002.63
2018-04-11T04:49:54.259Z,1002.64
2018-04-11T04:50:54.231Z,1002.63
2018-04-11T04:51:54.228Z,1002.64
2018-04-11T04:52:54.206Z,1002.64
2018-04-11T04:53:54.180Z,1002.64
2018-04-11T04:54:54.185Z,1002.65
2018-04-11T04:55:54.155Z,1002.62
2018-04-11T04:56:54.155Z,1002.59
2018-04-11T04:57:54.124Z,1002.55
2018-04-11T04:58:54.108Z,1002.63
2018-04-11T04:59:54.092Z,1002.60
2018-04-11T05:01:15.091Z,1002.59
2018-04-11T05:01:54.063Z,1002.60
2018-04-11T05:02:54.047Z,1002.58
2018-04-11T05:03:54.042Z,1002.57
2018-04-11T05:04:54.022Z,1002.55
2018-04-11T05:05:54.005Z,1002.58
2018-04-11T05:06:54.001Z,1002.56
2018-04-11T05:07:53.989Z,1002.57
2018-04-11T05:08:53.971Z,1002.65
2018-04-11T05:09:53.939Z,1002.69
2018-04-11T05:10:53.926Z,1002.74
2018-04-11T05:11:53.911Z,1002.77
2018-04-11T05:12:53.908Z,1002.80
2018-04-11T05:13:53.883Z,1002.85
2018-04-11T05:14:53.883Z,1002.86
2018-04-11T05:15:53.853Z,1002.87
2018-04-11T05:16:53.834Z,1002.89
2018-04-11T05:17:53.819Z,1002.86
2018-04-11T05:18:53.830Z,1002.85
2018-04-11T05:19:53.817Z,1002.84
2018-04-11T05:20:53.776Z,1002.87
2018-04-11T05:21:53.755Z,1002.91
2018-04-11T05:22:53.766Z,1002.97
2018-04-11T05:23:53.744Z,1003.01
2018-04-11T05:24:53.721Z,1003.07
2018-04-11T05:25:53.705Z,1003.10
2018-04-11T05:26:53.683Z,1003.10
2018-04-11T05:27:53.687Z,1003.12
2018-04-11T05:28:53.671Z,1003.10
2018-04-11T05:29:53.641Z,1003.15
2018-04-11T05:30:53.627Z,1003.16
2018-04-11T05:31:53.611Z,1003.14
2018-04-11T05:32:53.593Z,1003.18
2018-04-11T05:33:53.579Z,1003.17
2018-04-11T05:34:53.579Z,1003.16
2018-04-11T05:35:53.570Z,1003.15
2018-04-11T05:36:53.537Z,1003.15
2018-04-11T05:37:53.518Z,1003.08
2018-04-11T05:38:53.505Z,1003.08
2018-04-11T05:39:53.489Z,1003.05
2018-04-11T05:40:53.489Z,1003.09
2018-04-11T05:41:53.469Z,1003.06
2018-04-11T05:42:53.445Z,1003.07
2018-04-11T05:43:53.433Z,1003.07
2018-04-11T05:44:53.437Z,1003.07
2018-04-11T05:45:53.397Z,1003.07
2018-04-11T05:46:53.385Z,1003.04
2018-04-11T05:47:53.401Z,1003.09
2018-04-11T05:48:53.360Z,1003.06
2018-04-11T05:49:53.348Z,1003.05
2018-04-11T05:50:53.351Z,1003.09
2018-04-11T05:51:53.312Z,1003.08
2018-04-11T05:52:53.297Z,1003.08
2018-04-11T05:53:53.282Z,1003.12
2018-04-11T05:54:53.275Z,1003.12
2018-04-11T05:55:53.252Z,1003.13
2018-04-11T05:56:53.262Z,1003.19
2018-04-11T05:57:53.219Z,1003.22
2018-04-11T05:58:53.248Z,1003.22
2018-04-11T05:59:53.187Z,1003.26
2018-04-11T06:00:53.224Z,1003.26
2018-04-11T06:02:14.171Z,1003.26
2018-04-11T06:02:53.139Z,1003.27
2018-04-11T06:03:53.129Z,1003.30
2018-04-11T06:04:53.129Z,1003.24
2018-04-11T06:05:53.124Z,1003.25
2018-04-11T06:06:53.082Z,1003.29
2018-04-11T06:07:53.083Z,1003.24
2018-04-11T06:08:53.057Z,1003.29
2018-04-11T06:09:53.041Z,1003.30
2018-04-11T06:10:53.026Z,1003.30
2018-04-11T06:11:53.025Z,1003.34
2018-04-11T06:12:52.996Z,1003.36
2018-04-11T06:13:52.980Z,1003.40
2018-04-11T06:14:52.965Z,1003.38
2018-04-11T06:15:52.968Z,1003.44
2018-04-11T06:16:52.937Z,1003.44
2018-04-11T06:17:52.921Z,1003.48
2018-04-11T06:18:52.918Z,1003.47
2018-04-11T06:19:52.900Z,1003.48
2018-04-11T06:20:52.879Z,1003.49
2018-04-11T06:21:52.854Z,1003.50
2018-04-11T06:22:52.932Z,1003.52
2018-04-11T06:23:52.847Z,1003.53
2018-04-11T06:24:52.818Z,1003.52
2018-04-11T06:25:52.817Z,1003.56
2018-04-11T06:26:52.784Z,1003.58
2018-04-11T06:27:52.783Z,1003.62
2018-04-11T06:28:52.767Z,1003.61
2018-04-11T06:29:52.745Z,1003.60
2018-04-11T06:30:52.729Z,1003.59
2018-04-11T06:31:52.741Z,1003.60
2018-04-11T06:32:52.699Z,1003.59
2018-04-11T06:33:52.683Z,1003.57
2018-04-11T06:34:52.671Z,1003.57
2018-04-11T06:35:52.654Z,1003.61
2018-04-11T06:36:52.641Z,1003.58
2018-04-11T06:37:52.639Z,1003.59
2018-04-11T06:38:52.633Z,1003.57
2018-04-11T06:41:24.635Z,1003.53
2018-04-11T06:42:24.612Z,1003.51
2018-04-11T06:43:24.588Z,1003.51
2018-04-11T06:44:24.578Z,1003.47
2018-04-11T06:45:26.235Z,1003.42
2018-04-11T06:46:24.557Z,1003.44
2018-04-11T06:47:24.548Z,1003.40
2018-04-11T06:48:24.537Z,1003.42
2018-04-11T06:49:24.504Z,1003.43
2018-04-11T06:50:24.491Z,1003.46
2018-04-11T06:51:24.491Z,1003.51
2018-04-11T06:52:24.477Z,1003.51
2018-04-11T06:53:24.444Z,1003.49
2018-04-11T06:54:24.445Z,1003.49
2018-04-11T06:55:24.426Z,1003.48
2018-04-11T06:56:24.406Z,1003.53
2018-04-11T06:57:24.400Z,1003.49
2018-04-11T06:58:24.373Z,1003.51
2018-04-11T06:59:24.360Z,1003.52
2018-04-11T07:00:24.374Z,1003.56
2018-04-11T07:01:24.322Z,1003.55
2018-04-11T07:02:24.308Z,1003.57
2018-04-11T07:03:24.293Z,1003.56
2018-04-11T07:04:24.283Z,1003.58
2018-04-11T07:05:24.273Z,1003.59
2018-04-11T07:06:24.266Z,1003.59
2018-04-11T07:07:24.240Z,1003.57
2018-04-11T07:08:24.223Z,1003.56
2018-04-11T07:09:24.208Z,1003.60
2018-04-11T07:10:24.193Z,1003.58
2018-04-11T07:11:24.198Z,1003.58
2018-04-11T07:12:24.167Z,1003.57
2018-04-11T07:13:24.739Z,1003.61
2018-04-11T07:14:24.138Z,1003.57
2018-04-11T07:15:24.122Z,1003.62
2018-04-11T07:16:24.102Z,1003.64
2018-04-11T07:17:24.092Z,1003.61
2018-04-11T07:18:24.079Z,1003.60
2018-04-11T07:19:24.073Z,1003.65
2018-04-11T07:20:24.090Z,1003.62
2018-04-11T07:21:24.029Z,1003.64
2018-04-11T07:22:24.017Z,1003.62
2018-04-11T07:23:24.022Z,1003.63
2018-04-11T07:24:24.006Z,1003.61
2018-04-11T07:25:23.972Z,1003.63
2018-04-11T07:26:23.966Z,1003.62
2018-04-11T07:27:23.942Z,1003.62
2018-04-11T07:28:23.929Z,1003.63
2018-04-11T07:29:23.926Z,1003.60
2018-04-11T07:30:23.899Z,1003.60
2018-04-11T07:31:23.887Z,1003.58
2018-04-11T07:32:23.869Z,1003.60
2018-04-11T07:33:23.849Z,1003.60
2018-04-11T07:34:23.850Z,1003.56
2018-04-11T07:35:23.863Z,1003.54
2018-04-11T07:36:23.817Z,1003.61
2018-04-11T07:37:23.792Z,1003.56
2018-04-11T07:38:23.780Z,1003.56
2018-04-11T07:39:23.765Z,1003.57
2018-04-11T07:40:23.760Z,1003.56
2018-04-11T07:41:23.752Z,1003.57
2018-04-11T07:42:23.721Z,1003.58
2018-04-11T07:43:23.705Z,1003.59
2018-04-11T07:44:24.245Z,1003.62
2018-04-11T07:45:23.675Z,1003.62
2018-04-11T07:46:23.672Z,1003.66
2018-04-11T07:47:23.648Z,1003.65
2018-04-11T07:48:23.654Z,1003.66
2018-04-11T07:49:23.611Z,1003.64
2018-04-11T07:50:23.604Z,1003.62
2018-04-11T07:51:44.598Z,1003.60
2018-04-11T07:52:23.585Z,1003.64
2018-04-11T07:53:23.559Z,1003.69
2018-04-11T07:54:23.541Z,1003.68
2018-04-11T07:55:23.531Z,1003.71
2018-04-11T07:56:23.538Z,1003.72
2018-04-11T07:57:23.493Z,1003.73
2018-04-11T07:58:23.480Z,1003.73
2018-04-11T07:59:23.464Z,1003.75
2018-04-11T08:00:23.452Z,1003.77
2018-04-11T08:01:23.430Z,1003.73
2018-04-11T08:02:23.431Z,1003.76
2018-04-11T08:03:23.487Z,1003.78
2018-04-11T08:04:23.390Z,1003.77
2018-04-11T08:05:23.376Z,1003.73
2018-04-11T08:06:23.361Z,1003.74
2018-04-11T08:07:44.356Z,1003.72
2018-04-11T08:08:23.334Z,1003.75
2018-04-11T08:09:23.351Z,1003.76
2018-04-11T08:10:23.303Z,1003.78
2018-04-11T08:11:23.286Z,1003.76
2018-04-11T08:12:23.275Z,1003.75
2018-04-11T08:13:23.812Z,1003.79
2018-04-11T08:14:23.244Z,1003.76
2018-04-11T08:15:23.314Z,1003.78
2018-04-11T08:16:23.213Z,1003.79
2018-04-11T08:17:23.198Z,1003.82
2018-04-11T08:18:23.183Z,1003.81
2018-04-11T08:19:23.167Z,1003.83
2018-04-11T08:20:23.168Z,1003.84
2018-04-11T08:21:23.141Z,1003.83
2018-04-11T08:22:23.132Z,1003.85
2018-04-11T08:23:23.112Z,1003.83
2018-04-11T08:24:24.750Z,1003.82
2018-04-11T08:25:23.102Z,1003.84
2018-04-11T08:26:23.066Z,1003.86
2018-04-11T08:27:23.046Z,1003.86
2018-04-11T08:28:23.039Z,1003.85
2018-04-11T08:29:23.028Z,1003.85
2018-04-11T08:30:23.033Z,1003.83
2018-04-11T08:31:22.997Z,1003.86
2018-04-11T08:32:22.978Z,1003.84
2018-04-11T08:33:22.961Z,1003.85
2018-04-11T08:34:22.949Z,1003.88
2018-04-11T08:35:22.933Z,1003.89
2018-04-11T08:36:22.935Z,1003.88
2018-04-11T08:37:22.901Z,1003.89
2018-04-11T08:38:22.889Z,1003.92
2018-04-11T08:39:22.875Z,1003.93
2018-04-11T08:40:22.865Z,1003.93
2018-04-11T08:41:22.854Z,1003.94
2018-04-11T08:42:22.830Z,1003.96
2018-04-11T08:43:22.828Z,1003.94
2018-04-11T08:44:22.801Z,1003.91
2018-04-11T08:45:22.781Z,1003.92
2018-04-11T08:46:22.773Z,1003.93
2018-04-11T08:47:22.800Z,1003.91
2018-04-11T08:48:22.739Z,1003.92
2018-04-11T08:49:22.725Z,1003.90
2018-04-11T08:50:22.709Z,1003.91
2018-04-11T08:51:23.258Z,1003.90
2018-04-11T08:52:22.679Z,1003.89
2018-04-11T08:53:22.680Z,1003.89
2018-04-11T08:54:22.651Z,1003.89
2018-04-11T08:55:22.636Z,1003.87
2018-04-11T08:56:22.621Z,1003.86
2018-04-11T08:57:22.607Z,1003.83
2018-04-11T08:58:22.612Z,1003.82
2018-04-11T08:59:22.573Z,1003.82
2018-04-11T09:00:22.562Z,1003.81
2018-04-11T09:01:22.545Z,1003.83
2018-04-11T09:02:22.530Z,1003.83
2018-04-11T09:03:22.518Z,1003.82
2018-04-11T09:04:22.527Z,1003.83
2018-04-11T09:05:22.505Z,1003.85
2018-04-11T09:06:22.476Z,1003.83
2018-04-11T09:07:22.461Z,1003.85
2018-04-11T09:08:22.450Z,1003.81
2018-04-11T09:09:22.444Z,1003.86
2018-04-11T09:10:22.439Z,1003.89
2018-04-11T09:11:22.399Z,1003.88
2018-04-11T09:12:22.385Z,1003.88
2018-04-11T09:13:22.369Z,1003.90
2018-04-11T09:14:22.355Z,1003.88
2018-04-11T09:15:22.342Z,1003.86
2018-04-11T09:16:22.341Z,1003.90
2018-04-11T09:17:22.311Z,1003.95
2018-04-11T09:18:22.299Z,1003.90
2018-04-11T09:19:22.291Z,1003.90
2018-04-11T09:20:22.268Z,1003.93
2018-04-11T09:21:22.268Z,1003.98
2018-04-11T09:22:22.236Z,1003.97
2018-04-11T09:23:22.223Z,1004.02
2018-04-11T09:24:22.207Z,1004.01
2018-04-11T09:25:22.194Z,1004.03
2018-04-11T09:26:22.215Z,1004.03
2018-04-11T09:27:22.162Z,1004.03
2018-04-11T09:28:22.149Z,1004.01
2018-04-11T09:29:22.132Z,1004.04
2018-04-11T09:30:22.117Z,1003.98
2018-04-11T09:31:22.105Z,1004.02
2018-04-11T09:32:22.115Z,1004.02
2018-04-11T09:33:22.074Z,1004.01
2018-04-11T09:34:22.058Z,1004.02
2018-04-11T09:35:22.045Z,1004.07
2018-04-11T09:36:22.767Z,1004.05
2018-04-11T09:37:22.014Z,1004.06
2018-04-11T09:38:22.017Z,1004.06
2018-04-11T09:39:21.986Z,1004.09
2018-04-11T09:40:21.978Z,1004.05
2018-04-11T09:41:21.947Z,1004.05
2018-04-11T09:42:21.939Z,1004.05
2018-04-11T09:43:21.925Z,1004.03
2018-04-11T09:44:21.922Z,1004.02
2018-04-11T09:45:21.893Z,1004.03
2018-04-11T09:46:21.883Z,1004.01
2018-04-11T09:47:21.864Z,1004.01
2018-04-11T09:48:21.849Z,1004.06
2018-04-11T09:49:21.848Z,1004.07
2018-04-11T09:50:21.820Z,1004.04
2018-04-11T09:51:21.814Z,1004.04
2018-04-11T09:52:21.790Z,1004.06
2018-04-11T09:53:21.829Z,1004.07
2018-04-11T09:54:21.760Z,1004.08
2018-04-11T09:55:21.756Z,1004.06
2018-04-11T09:56:21.749Z,1004.10
2018-04-11T09:57:21.708Z,1004.07
2018-04-11T09:58:21.715Z,1004.09
2018-04-11T09:59:21.695Z,1004.10
2018-04-11T10:00:21.739Z,1004.10
2018-04-11T10:01:21.651Z,1004.12
2018-04-11T10:02:21.633Z,1004.14
2018-04-11T10:03:21.624Z,1004.17
2018-04-11T10:04:21.610Z,1004.14
2018-04-11T10:05:21.605Z,1004.14
2018-04-11T10:06:21.587Z,1004.11
2018-04-11T10:07:21.572Z,1004.15
2018-04-11T10:08:21.545Z,1004.13
2018-04-11T10:09:21.526Z,1004.16
2018-04-11T10:10:21.516Z,1004.12
2018-04-11T10:11:21.519Z,1004.12
2018-04-11T10:12:21.506Z,1004.14
2018-04-11T10:13:21.470Z,1004.13
2018-04-11T10:14:21.455Z,1004.11
2018-04-11T10:15:21.439Z,1004.08
2018-04-11T10:16:21.428Z,1004.10
2018-04-11T10:17:21.426Z,1004.08
2018-04-11T10:18:21.394Z,1004.06
2018-04-11T10:19:21.380Z,1004.09
2018-04-11T10:20:21.365Z,1004.07
2018-04-11T10:21:21.351Z,1004.11
2018-04-11T10:22:21.352Z,1004.11
2018-04-11T10:23:23.274Z,1004.09
2018-04-11T10:24:21.303Z,1004.09
2018-04-11T10:25:21.282Z,1004.10
2018-04-11T10:26:21.275Z,1004.10
2018-04-11T10:27:21.258Z,1004.06
2018-04-11T10:28:21.244Z,1004.06
2018-04-11T10:29:21.239Z,1004.03
2018-04-11T10:30:21.219Z,1004.06
2018-04-11T10:31:21.195Z,1004.05
2018-04-11T10:32:21.181Z,1004.02
2018-04-11T10:33:21.181Z,1004.07
2018-04-11T10:34:21.165Z,1004.03
2018-04-11T10:35:21.153Z,1004.07
2018-04-11T10:36:21.129Z,1004.05
2018-04-11T10:37:21.125Z,1004.06
2018-04-11T10:38:21.088Z,1004.08
2018-04-11T10:39:21.075Z,1004.07
2018-04-11T10:40:21.076Z,1004.04
2018-04-11T10:41:21.044Z,1004.05
2018-04-11T10:42:21.031Z,1004.07
2018-04-11T10:43:21.010Z,1004.06
2018-04-11T10:44:20.994Z,1004.06
2018-04-11T10:45:20.982Z,1004.05
2018-04-11T10:46:20.980Z,1004.08
2018-04-11T10:47:20.953Z,1004.12
2018-04-11T10:48:20.941Z,1004.13
2018-04-11T10:49:20.923Z,1004.12
2018-04-11T10:50:20.907Z,1004.15
2018-04-11T10:51:20.911Z,1004.13
2018-04-11T10:52:20.914Z,1004.12
2018-04-11T10:53:20.862Z,1004.19
2018-04-11T10:54:20.848Z,1004.17
2018-04-11T10:55:20.832Z,1004.17
2018-04-11T10:56:20.821Z,1004.21
2018-04-11T10:57:20.817Z,1004.21
2018-04-11T10:58:20.784Z,1004.14
2018-04-11T10:59:20.772Z,1004.15
2018-04-11T11:00:20.755Z,1004.13
2018-04-11T11:01:20.743Z,1004.15
2018-04-11T11:02:20.761Z,1004.11
2018-04-11T11:03:20.713Z,1004.10
2018-04-11T11:04:20.696Z,1004.13
2018-04-11T11:05:20.682Z,1004.07
2018-04-11T11:06:20.667Z,1004.08
2018-04-11T11:07:20.650Z,1004.07
2018-04-11T11:08:20.655Z,1004.08
2018-04-11T11:09:20.635Z,1004.06
2018-04-11T11:10:20.607Z,1004.05
2018-04-11T11:11:20.591Z,1004.07
2018-04-11T11:12:20.580Z,1004.10
2018-04-11T11:13:20.564Z,1004.10
2018-04-11T11:14:20.562Z,1004.09
2018-04-11T11:15:20.530Z,1004.07
2018-04-11T11:16:20.527Z,1004.06
2018-04-11T11:17:20.501Z,1004.08
2018-04-11T11:18:20.485Z,1004.07
2018-04-11T11:19:20.504Z,1004.06
2018-04-11T11:20:20.460Z,1004.07
2018-04-11T11:21:20.444Z,1004.07
2018-04-11T11:22:20.428Z,1004.03
2018-04-11T11:23:20.412Z,1004.08
2018-04-11T11:24:20.397Z,1004.06
2018-04-11T11:25:20.406Z,1004.10
2018-04-11T11:26:20.369Z,1004.07
2018-04-11T11:27:20.352Z,1004.13
2018-04-11T11:28:20.337Z,1004.08
2018-04-11T11:29:20.344Z,1004.07
2018-04-11T11:30:20.305Z,1004.05
2018-04-11T11:31:20.292Z,1004.05
2018-04-11T11:32:20.278Z,1004.06
2018-04-11T11:33:20.259Z,1004.02
2018-04-11T11:34:20.263Z,1004.02
2018-04-11T11:35:20.230Z,1004.03
2018-04-11T11:36:20.224Z,1003.99
2018-04-11T11:37:20.200Z,1004.02
2018-04-11T11:38:20.185Z,1003.97
2018-04-11T11:39:20.172Z,1003.98
2018-04-11T11:40:20.171Z,1003.97
2018-04-11T11:41:20.139Z,1003.95
2018-04-11T11:42:20.127Z,1003.94
2018-04-11T11:43:20.109Z,1003.93
2018-04-11T11:44:20.097Z,1003.93
2018-04-11T11:45:20.101Z,1003.93
2018-04-11T11:46:20.068Z,1003.89
2018-04-11T11:47:20.051Z,1003.91
2018-04-11T11:48:20.047Z,1003.91
2018-04-11T11:49:20.023Z,1003.91
2018-04-11T11:50:20.010Z,1003.89
2018-04-11T11:51:20.019Z,1003.94
2018-04-11T11:52:19.973Z,1003.90
2018-04-11T11:53:19.961Z,1003.90
2018-04-11T11:54:19.948Z,1003.92
2018-04-11T11:55:19.932Z,1003.94
2018-04-11T11:56:19.917Z,1003.93
2018-04-11T11:57:19.982Z,1003.91
2018-04-11T11:58:19.891Z,1003.89
2018-04-11T11:59:19.880Z,1003.89
2018-04-11T12:00:19.862Z,1003.91
2018-04-11T12:01:19.860Z,1003.93
2018-04-11T12:02:19.843Z,1003.94
2018-04-11T12:03:19.814Z,1003.96
2018-04-11T12:04:19.796Z,1003.96
2018-04-11T12:05:19.786Z,1003.93
2018-04-11T12:06:20.361Z,1003.92
2018-04-11T12:07:19.755Z,1003.95